createdAt,value
2022-10-17T00:01:22.464Z,7.30
2022-10-17T00:03:50.163Z,6.07
2022-10-17T00:06:17.759Z,7.13
2022-10-17T00:08:45.726Z,6.30
2022-10-17T00:11:16.768Z,7.00
2022-10-17T00:13:44.659Z,7.07
2022-10-17T00:16:13.766Z,6.50
2022-10-17T00:18:41.346Z,9.20
2022-10-17T00:21:16.570Z,7.97
2022-10-17T00:23:44.148Z,7.40
2022-10-17T00:26:11.746Z,7.33
2022-10-17T00:28:39.460Z,6.97
2022-10-17T00:31:08.492Z,7.47
2022-10-17T00:33:37.543Z,6.37
2022-10-17T00:36:08.055Z,7.20
2022-10-17T00:38:36.553Z,7.17
2022-10-17T00:41:04.833Z,7.10
2022-10-17T00:43:50.596Z,8.13
2022-10-17T00:46:18.738Z,7.37
2022-10-17T00:48:49.610Z,6.37
2022-10-17T00:51:20.122Z,7.00
2022-10-17T00:53:47.798Z,8.20
2022-10-17T00:56:16.376Z,7.90
2022-10-17T00:58:44.776Z,5.83
2022-10-17T01:01:12.459Z,7.93
2022-10-17T01:03:40.385Z,7.70
2022-10-17T01:06:09.299Z,7.60
2022-10-17T01:08:37.520Z,7.37
2022-10-17T01:11:13.121Z,6.57
2022-10-17T01:13:46.878Z,7.57
2022-10-17T01:16:19.926Z,6.10
2022-10-17T01:19:00.188Z,7.43
2022-10-17T01:21:49.048Z,6.00
2022-10-17T01:24:42.832Z,6.70
2022-10-17T01:27:38.814Z,6.33
2022-10-17T01:30:35.259Z,6.03
2022-10-17T01:33:11.848Z,5.80
2022-10-17T01:35:47.556Z,6.30
2022-10-17T01:38:21.552Z,5.20
2022-10-17T01:40:56.494Z,6.17
2022-10-17T01:43:30.408Z,6.00
2022-10-17T01:46:02.809Z,5.23
2022-10-17T01:48:36.730Z,5.87
2022-10-17T01:51:09.919Z,6.10
2022-10-17T01:53:42.819Z,5.53
2022-10-17T01:56:13.022Z,6.30
2022-10-17T01:58:44.416Z,5.37
2022-10-17T02:01:13.755Z,4.93
2022-10-17T02:03:46.888Z,5.30
2022-10-17T02:06:14.448Z,6.10
2022-10-17T02:08:44.689Z,4.97
2022-10-17T02:11:15.963Z,5.87
2022-10-17T02:13:56.565Z,5.40
2022-10-17T02:16:35.010Z,5.20
2022-10-17T02:19:17.786Z,4.70
2022-10-17T02:21:50.836Z,6.23
2022-10-17T02:24:29.119Z,5.10
2022-10-17T02:27:05.299Z,4.63
2022-10-17T02:29:39.574Z,5.30
2022-10-17T02:32:13.218Z,5.50
2022-10-17T02:34:47.355Z,4.70
2022-10-17T02:37:20.425Z,5.20
2022-10-17T02:39:51.601Z,4.60
2022-10-17T02:42:20.929Z,5.20
2022-10-17T02:44:48.903Z,4.47
2022-10-17T02:47:23.051Z,4.80
2022-10-17T02:49:54.407Z,5.00
2022-10-17T02:52:29.307Z,5.10
2022-10-17T02:55:04.195Z,5.07
2022-10-17T02:57:37.954Z,5.30
2022-10-17T03:00:09.811Z,4.47
2022-10-17T03:02:42.380Z,4.83
2022-10-17T03:05:15.078Z,5.17
2022-10-17T03:07:42.682Z,5.40
2022-10-17T03:10:10.665Z,5.00
2022-10-17T03:12:38.755Z,4.33
2022-10-17T03:15:07.628Z,4.77
2022-10-17T03:17:36.829Z,4.60
2022-10-17T03:20:04.929Z,5.27
2022-10-17T03:22:34.160Z,5.33
2022-10-17T03:25:04.120Z,6.00
2022-10-17T03:27:31.988Z,5.00
2022-10-17T03:29:59.821Z,4.80
2022-10-17T03:32:27.578Z,5.20
2022-10-17T03:34:55.212Z,5.43
2022-10-17T03:37:22.822Z,5.60
2022-10-17T03:39:52.168Z,4.60
2022-10-17T03:42:19.819Z,5.00
2022-10-17T03:44:47.564Z,4.60
2022-10-17T03:47:15.206Z,4.80
2022-10-17T03:49:42.892Z,5.30
2022-10-17T03:52:13.116Z,5.00
2022-10-17T03:54:41.547Z,5.10
2022-10-17T03:57:10.484Z,5.10
2022-10-17T03:59:38.625Z,4.97
2022-10-17T04:02:12.379Z,4.17
2022-10-17T04:04:40.028Z,4.90
2022-10-17T04:07:07.982Z,4.80
2022-10-17T04:09:39.014Z,4.40
2022-10-17T04:12:12.806Z,5.00
2022-10-17T04:14:40.840Z,5.17
2022-10-17T04:17:08.427Z,4.83
2022-10-17T04:19:37.057Z,4.50
2022-10-17T04:22:04.696Z,4.57
2022-10-17T04:24:35.872Z,5.73
2022-10-17T04:27:06.669Z,4.67
2022-10-17T04:29:39.499Z,4.53
2022-10-17T04:32:25.776Z,4.70
2022-10-17T04:35:03.935Z,4.80
2022-10-17T04:37:32.371Z,4.73
2022-10-17T04:40:03.394Z,4.30
2022-10-17T04:42:33.268Z,4.20
2022-10-17T04:45:02.371Z,4.90
2022-10-17T04:47:30.633Z,4.90
2022-10-17T04:49:58.226Z,4.77
2022-10-17T04:52:26.595Z,5.23
2022-10-17T04:54:54.930Z,4.43
2022-10-17T04:57:22.893Z,4.10
2022-10-17T05:00:06.064Z,4.07
2022-10-17T05:02:58.800Z,4.67
2022-10-17T05:05:27.188Z,4.47
2022-10-17T05:07:56.321Z,5.10
2022-10-17T05:10:26.828Z,5.00
2022-10-17T05:12:55.606Z,4.60
2022-10-17T05:15:28.298Z,4.47
2022-10-17T05:17:57.391Z,5.37
2022-10-17T05:20:27.715Z,5.13
2022-10-17T05:22:55.853Z,4.87
2022-10-17T05:25:24.278Z,4.80
2022-10-17T05:27:52.073Z,4.87
2022-10-17T05:30:20.175Z,4.40
2022-10-17T05:32:55.546Z,4.83
2022-10-17T05:35:23.375Z,4.77
2022-10-17T05:37:51.014Z,4.60
2022-10-17T05:40:19.483Z,5.00
2022-10-17T05:42:48.475Z,4.60
2022-10-17T05:45:17.817Z,4.70
2022-10-17T05:47:46.935Z,5.40
2022-10-17T05:50:16.051Z,4.20
2022-10-17T05:53:00.895Z,4.50
2022-10-17T05:55:29.128Z,4.90
2022-10-17T05:57:58.503Z,4.70
2022-10-17T06:00:29.466Z,5.07
2022-10-17T06:02:59.430Z,4.47
2022-10-17T06:05:28.425Z,4.60
2022-10-17T06:08:01.025Z,5.40
2022-10-17T06:10:31.653Z,4.47
2022-10-17T06:13:00.427Z,4.20
2022-10-17T06:15:28.533Z,4.80
2022-10-17T06:18:02.724Z,4.90
2022-10-17T06:20:31.989Z,4.50
2022-10-17T06:22:59.724Z,4.80
2022-10-17T06:26:00.560Z,4.60
2022-10-17T06:28:30.350Z,4.77
2022-10-17T06:30:59.076Z,4.83
2022-10-17T06:33:27.442Z,5.10
2022-10-17T06:35:57.570Z,4.53
2022-10-17T06:38:26.449Z,5.13
2022-10-17T06:41:04.815Z,4.97
2022-10-17T06:43:32.727Z,4.40
2022-10-17T06:46:20.335Z,4.80
2022-10-17T06:48:57.739Z,4.30
2022-10-17T06:51:45.519Z,4.53
2022-10-17T06:54:15.850Z,4.90
2022-10-17T06:57:06.732Z,4.53
2022-10-17T06:59:50.475Z,5.37
2022-10-17T07:02:29.597Z,4.83
2022-10-17T07:04:59.675Z,5.17
2022-10-17T07:07:32.208Z,4.87
2022-10-17T07:10:00.264Z,4.20
2022-10-17T07:12:27.929Z,3.97
2022-10-17T07:14:55.712Z,4.10
2022-10-17T07:17:23.271Z,4.20
2022-10-17T07:19:50.807Z,4.93
2022-10-17T07:22:18.512Z,4.17
2022-10-17T07:27:30.293Z,3.47
2022-10-17T07:29:58.907Z,4.80
2022-10-17T07:32:39.417Z,3.77
2022-10-17T07:35:10.373Z,3.30
2022-10-17T07:37:39.072Z,4.33
2022-10-17T07:40:09.454Z,3.47
2022-10-17T07:45:08.584Z,3.73
2022-10-17T07:47:38.010Z,3.83
2022-10-17T07:50:09.159Z,3.90
2022-10-17T07:52:36.743Z,4.10
2022-10-17T07:55:04.679Z,4.20
2022-10-17T07:57:33.707Z,3.13
2022-10-17T08:00:01.361Z,3.83
2022-10-17T08:02:29.375Z,3.13
2022-10-17T08:04:57.168Z,3.93
2022-10-17T08:07:28.523Z,3.90
2022-10-17T08:09:57.279Z,3.73
2022-10-17T08:12:25.898Z,3.63
2022-10-17T08:14:54.820Z,4.33
2022-10-17T08:17:22.649Z,4.43
2022-10-17T08:19:50.233Z,4.10
2022-10-17T08:22:17.824Z,3.23
2022-10-17T08:24:48.273Z,3.33
2022-10-17T08:27:21.372Z,3.83
2022-10-17T08:29:52.621Z,3.70
2022-10-17T08:32:22.406Z,3.50
2022-10-17T08:34:50.072Z,3.10
2022-10-17T08:37:17.791Z,3.20
2022-10-17T08:39:45.960Z,3.30
2022-10-17T08:42:30.632Z,3.63
2022-10-17T08:45:04.536Z,3.07
2022-10-17T08:47:38.465Z,3.30
2022-10-17T08:50:08.903Z,3.63
2022-10-17T08:52:40.729Z,3.87
2022-10-17T08:55:16.444Z,3.13
2022-10-17T08:57:44.399Z,3.20
2022-10-17T09:00:17.956Z,3.43
2022-10-17T09:02:56.119Z,3.70
2022-10-17T09:05:39.127Z,3.13
2022-10-17T09:08:19.525Z,2.70
2022-10-17T09:10:56.680Z,3.30
2022-10-17T09:16:37.346Z,4.13
2022-10-17T09:19:13.419Z,3.73
2022-10-17T09:21:45.818Z,3.70
2022-10-17T09:24:18.807Z,3.30
2022-10-17T09:26:47.723Z,2.83
2022-10-17T09:29:22.660Z,3.83
2022-10-17T09:34:33.228Z,3.17
2022-10-17T09:37:02.656Z,3.70
2022-10-17T09:39:31.939Z,3.20
2022-10-17T09:42:01.856Z,3.33
2022-10-17T09:44:32.060Z,3.30
2022-10-17T09:47:19.908Z,3.30
2022-10-17T09:49:50.605Z,2.90
2022-10-17T09:52:20.752Z,3.03
2022-10-17T09:54:51.011Z,3.70
2022-10-17T09:57:20.474Z,2.23
2022-10-17T09:59:56.328Z,3.00
2022-10-17T10:02:26.015Z,3.23
2022-10-17T10:05:05.658Z,2.93
2022-10-17T10:07:36.453Z,3.40
2022-10-17T10:10:06.058Z,3.90
2022-10-17T10:12:35.716Z,3.67
2022-10-17T10:15:03.456Z,3.57
2022-10-17T10:17:41.637Z,3.37
2022-10-17T10:20:33.599Z,4.07
2022-10-17T10:23:15.173Z,2.97
2022-10-17T10:25:57.913Z,3.10
2022-10-17T10:28:31.926Z,3.57
2022-10-17T10:31:04.517Z,3.30
2022-10-17T10:33:34.460Z,3.30
2022-10-17T10:36:07.686Z,3.20
2022-10-17T10:38:40.066Z,3.53
2022-10-17T10:41:10.211Z,3.63
2022-10-17T10:43:42.000Z,3.67
2022-10-17T10:46:19.272Z,4.63
2022-10-17T10:48:56.404Z,3.50
2022-10-17T10:51:31.283Z,3.63
2022-10-17T10:54:04.406Z,3.90
2022-10-17T10:56:38.057Z,3.60
2022-10-17T10:59:18.717Z,3.60
2022-10-17T11:01:51.334Z,3.53
2022-10-17T11:04:27.428Z,3.43
2022-10-17T11:07:02.093Z,4.07
2022-10-17T11:09:43.646Z,3.53
2022-10-17T11:12:17.911Z,3.23
2022-10-17T11:14:51.103Z,4.40
2022-10-17T11:17:29.302Z,4.40
2022-10-17T11:20:04.506Z,4.30
2022-10-17T11:22:38.630Z,4.97
2022-10-17T11:25:15.820Z,4.30
2022-10-17T11:27:43.456Z,4.37
2022-10-17T11:30:13.614Z,3.80
2022-10-17T11:32:45.894Z,3.20
2022-10-17T11:35:20.894Z,3.67
2022-10-17T11:37:54.076Z,3.33
2022-10-17T11:40:29.862Z,4.10
2022-10-17T11:43:01.742Z,3.80
2022-10-17T11:45:36.252Z,3.70
2022-10-17T11:48:11.728Z,3.70
2022-10-17T11:53:38.142Z,3.47
2022-10-17T11:56:06.674Z,3.83
2022-10-17T11:58:40.374Z,3.77
2022-10-17T12:01:16.740Z,4.40
2022-10-17T12:03:53.693Z,4.37
2022-10-17T12:06:37.630Z,4.23
2022-10-17T12:09:12.837Z,4.20
2022-10-17T12:11:50.862Z,3.90
2022-10-17T12:14:43.048Z,4.13
2022-10-17T12:17:32.957Z,3.97
2022-10-17T12:20:27.322Z,3.73
2022-10-17T12:22:56.507Z,3.80
2022-10-17T12:25:29.994Z,3.63
2022-10-17T12:28:14.195Z,3.67
2022-10-17T12:31:01.120Z,3.83
2022-10-17T12:33:38.676Z,4.13
2022-10-17T12:36:45.704Z,4.40
2022-10-17T12:39:51.216Z,4.00
2022-10-17T12:42:48.816Z,4.00
2022-10-17T12:45:51.333Z,3.67
2022-10-17T12:49:13.011Z,4.70
2022-10-17T12:52:22.677Z,5.03
2022-10-17T12:55:13.182Z,4.30
2022-10-17T12:58:03.113Z,4.20
2022-10-17T13:00:36.012Z,4.30
2022-10-17T13:03:10.883Z,4.03
2022-10-17T13:05:41.162Z,4.00
2022-10-17T13:08:16.885Z,4.20
2022-10-17T13:10:51.631Z,4.60
2022-10-17T13:13:25.136Z,4.33
2022-10-17T13:15:55.778Z,4.70
2022-10-17T13:18:25.568Z,4.27
2022-10-17T13:21:01.198Z,4.60
2022-10-17T13:23:33.053Z,3.47
2022-10-17T13:26:06.294Z,4.57
2022-10-17T13:28:39.165Z,4.40
2022-10-17T13:31:07.818Z,4.13
2022-10-17T13:33:40.532Z,5.60
2022-10-17T13:36:15.622Z,5.10
2022-10-17T13:38:44.068Z,4.97
2022-10-17T13:44:11.115Z,4.27
2022-10-17T13:46:40.843Z,5.10
2022-10-17T13:49:19.242Z,4.53
2022-10-17T13:51:50.773Z,4.60
2022-10-17T13:54:33.851Z,4.30
2022-10-17T13:57:02.239Z,4.60
2022-10-17T13:59:37.983Z,5.10
2022-10-17T14:02:12.373Z,5.80
2022-10-17T14:05:04.756Z,4.57
2022-10-17T14:07:58.338Z,4.90
2022-10-17T14:10:26.003Z,5.57
2022-10-17T14:12:55.134Z,6.20
2022-10-17T14:15:27.975Z,5.20
2022-10-17T14:17:59.164Z,4.60
2022-10-17T14:23:40.009Z,5.10
2022-10-17T14:26:14.720Z,4.87
2022-10-17T14:28:44.377Z,4.60
2022-10-17T14:31:25.368Z,5.10
2022-10-17T14:33:54.602Z,5.17
2022-10-17T14:36:32.457Z,4.93
2022-10-17T14:39:01.788Z,5.23
2022-10-17T14:41:47.841Z,5.30
2022-10-17T14:44:22.763Z,6.03
2022-10-17T14:46:55.369Z,6.27
2022-10-17T14:49:28.614Z,6.17
2022-10-17T14:52:29.230Z,5.47
2022-10-17T14:54:58.383Z,5.10
2022-10-17T14:57:29.378Z,5.57
2022-10-17T14:59:57.750Z,4.57
2022-10-17T15:02:31.160Z,5.10
2022-10-17T15:04:58.989Z,6.60
2022-10-17T15:07:26.616Z,5.60
2022-10-17T15:09:54.699Z,4.63
2022-10-17T15:12:24.653Z,5.27
2022-10-17T15:14:52.642Z,5.63
2022-10-17T15:17:23.264Z,5.40
2022-10-17T15:19:52.321Z,4.67
2022-10-17T15:22:19.979Z,4.63
2022-10-17T15:24:47.568Z,4.50
2022-10-17T15:27:17.565Z,5.10
2022-10-17T15:29:45.932Z,5.03
2022-10-17T15:32:13.701Z,5.60
2022-10-17T15:34:41.549Z,5.33
2022-10-17T15:37:17.800Z,5.40
2022-10-17T15:39:47.961Z,4.80
2022-10-17T15:42:15.543Z,5.47
2022-10-17T15:44:44.428Z,5.90
2022-10-17T15:47:23.086Z,5.73
2022-10-17T15:49:50.852Z,5.03
2022-10-17T15:52:20.153Z,5.03
2022-10-17T15:54:47.787Z,5.90
2022-10-17T15:57:18.947Z,6.33
2022-10-17T15:59:47.864Z,6.20
2022-10-17T16:02:16.831Z,5.77
2022-10-17T16:04:44.945Z,6.50
2022-10-17T16:07:12.741Z,6.97
2022-10-17T16:09:41.700Z,6.60
2022-10-17T16:12:14.178Z,8.70
2022-10-17T16:14:41.920Z,5.63
2022-10-17T16:17:12.978Z,5.90
2022-10-17T16:19:40.554Z,6.53
2022-10-17T16:22:08.214Z,6.17
2022-10-17T16:24:35.848Z,5.80
2022-10-17T16:27:04.916Z,6.17
2022-10-17T16:29:32.579Z,5.13
2022-10-17T16:32:00.265Z,6.20
2022-10-17T16:34:27.928Z,7.60
2022-10-17T16:36:55.596Z,7.73
2022-10-17T16:39:23.406Z,5.97
2022-10-17T16:41:53.583Z,7.97
2022-10-17T16:44:25.151Z,7.60
2022-10-17T16:46:52.770Z,7.27
2022-10-17T16:49:20.429Z,6.73
2022-10-17T16:51:48.055Z,7.53
2022-10-17T16:54:15.805Z,7.37
2022-10-17T16:56:43.416Z,8.40
2022-10-17T16:59:12.466Z,10.00
2022-10-17T17:01:41.654Z,8.20
2022-10-17T17:04:09.805Z,8.80
2022-10-17T17:06:37.763Z,8.70
2022-10-17T17:09:05.408Z,7.97
2022-10-17T17:11:33.275Z,8.37
2022-10-17T17:14:02.318Z,7.50
2022-10-17T17:16:31.947Z,9.57
2022-10-17T17:19:02.777Z,8.57
2022-10-17T17:21:31.484Z,9.30
2022-10-17T17:24:00.255Z,8.67
2022-10-17T17:26:29.025Z,10.10
2022-10-17T17:28:59.354Z,9.07
2022-10-17T17:31:29.091Z,9.93
2022-10-17T17:33:57.227Z,8.60
2022-10-17T17:36:28.836Z,9.80
2022-10-17T17:38:58.231Z,8.30
2022-10-17T17:41:26.630Z,9.07
2022-10-17T17:43:54.796Z,8.00
2022-10-17T17:46:24.214Z,8.83
2022-10-17T17:48:53.302Z,8.13
2022-10-17T17:51:28.296Z,11.87
2022-10-17T17:53:58.425Z,9.83
2022-10-17T17:56:28.368Z,9.83
2022-10-17T17:58:57.452Z,9.77
2022-10-17T18:01:28.183Z,8.90
2022-10-17T18:03:58.819Z,9.23
2022-10-17T18:06:27.358Z,7.97
2022-10-17T18:08:59.909Z,9.00
2022-10-17T18:11:28.706Z,9.03
2022-10-17T18:13:57.655Z,8.60
2022-10-17T18:16:25.822Z,9.53
2022-10-17T18:18:53.964Z,8.13
2022-10-17T18:21:21.601Z,9.00
2022-10-17T18:23:50.274Z,8.13
2022-10-17T18:26:19.755Z,9.30
2022-10-17T18:28:47.474Z,8.27
2022-10-17T18:31:19.014Z,7.73
2022-10-17T18:33:47.442Z,7.40
2022-10-17T18:36:16.278Z,7.40
2022-10-17T18:38:43.993Z,6.37
2022-10-17T18:41:13.970Z,5.90
2022-10-17T18:43:44.558Z,6.27
2022-10-17T18:46:15.069Z,6.07
2022-10-17T18:48:44.250Z,8.40
2022-10-17T18:51:12.158Z,6.60
2022-10-17T18:53:41.322Z,5.40
2022-10-17T18:56:09.353Z,5.70
2022-10-17T18:58:37.469Z,5.30
2022-10-17T19:01:08.427Z,7.00
2022-10-17T19:03:44.270Z,6.17
2022-10-17T19:06:15.551Z,5.67
2022-10-17T19:08:44.179Z,6.30
2022-10-17T19:11:14.486Z,4.83
2022-10-17T19:13:43.044Z,4.80
2022-10-17T19:16:13.567Z,5.30
2022-10-17T19:18:43.856Z,5.77
2022-10-17T19:21:12.699Z,5.30
2022-10-17T19:23:40.362Z,5.00
2022-10-17T19:26:10.460Z,5.50
2022-10-17T19:28:39.553Z,4.87
2022-10-17T19:31:07.928Z,4.87
2022-10-17T19:33:37.696Z,5.13
2022-10-17T19:36:07.381Z,6.00
2022-10-17T19:38:35.743Z,5.07
2022-10-17T19:41:06.726Z,4.50
2022-10-17T19:43:36.125Z,4.97
2022-10-17T19:46:05.805Z,4.80
2022-10-17T19:48:34.381Z,5.30
2022-10-17T19:51:03.924Z,5.73
2022-10-17T19:53:31.634Z,5.60
2022-10-17T19:55:59.436Z,6.20
2022-10-17T19:58:27.840Z,6.17
2022-10-17T20:00:57.073Z,6.10
2022-10-17T20:03:26.021Z,5.80
2022-10-17T20:05:53.646Z,6.30
2022-10-17T20:08:22.742Z,5.80
2022-10-17T20:10:50.576Z,6.17
2022-10-17T20:13:18.361Z,5.80
2022-10-17T20:15:54.878Z,5.90
2022-10-17T20:18:22.894Z,5.63
2022-10-17T20:20:50.552Z,5.97
2022-10-17T20:23:18.265Z,5.70
2022-10-17T20:25:47.234Z,5.03
2022-10-17T20:28:15.023Z,5.93
2022-10-17T20:30:45.522Z,5.60
2022-10-17T20:33:15.604Z,7.00
2022-10-17T20:38:17.116Z,5.60
2022-10-17T20:40:45.002Z,4.97
2022-10-17T20:43:14.097Z,5.20
2022-10-17T20:45:51.394Z,5.67
2022-10-17T20:48:20.183Z,5.43
2022-10-17T20:50:48.235Z,5.13
2022-10-17T20:53:36.125Z,5.00
2022-10-17T20:56:06.773Z,4.60
2022-10-17T20:58:35.931Z,5.20
2022-10-17T21:01:08.080Z,6.60
2022-10-17T21:03:39.776Z,6.70
2022-10-17T21:06:10.546Z,7.03
2022-10-17T21:08:38.428Z,5.87
2022-10-17T21:11:11.087Z,6.07
2022-10-17T21:13:40.795Z,7.17
2022-10-17T21:16:10.270Z,7.00
2022-10-17T21:18:38.554Z,6.80
2022-10-17T21:21:11.580Z,5.60
2022-10-17T21:23:40.489Z,7.20
2022-10-17T21:26:09.738Z,7.20
2022-10-17T21:28:37.752Z,6.93
2022-10-17T21:31:16.111Z,7.40
2022-10-17T21:33:46.319Z,8.70
2022-10-17T21:36:16.257Z,6.40
2022-10-17T21:38:44.680Z,7.43
2022-10-17T21:41:13.874Z,6.87
2022-10-17T21:43:42.578Z,7.80
2022-10-17T21:46:14.990Z,5.80
2022-10-17T21:48:43.021Z,6.97
2022-10-17T21:51:13.109Z,7.27
2022-10-17T21:53:41.024Z,6.70
2022-10-17T21:56:11.480Z,6.10
2022-10-17T21:58:39.452Z,6.67
2022-10-17T22:01:09.750Z,6.20
2022-10-17T22:03:44.204Z,7.77
2022-10-17T22:09:05.456Z,6.60
2022-10-17T22:11:35.621Z,7.33
2022-10-17T22:14:06.060Z,6.50
2022-10-17T22:16:34.652Z,6.10
2022-10-17T22:19:06.479Z,6.37
2022-10-17T22:21:35.736Z,9.13
2022-10-17T22:24:06.120Z,9.00
2022-10-17T22:26:35.759Z,7.73
2022-10-17T22:29:04.742Z,8.80
2022-10-17T22:31:32.643Z,8.00
2022-10-17T22:34:00.315Z,5.97
2022-10-17T22:36:29.398Z,6.27
2022-10-17T22:38:57.063Z,6.20
2022-10-17T22:41:24.758Z,6.03
2022-10-17T22:43:52.439Z,5.27
2022-10-17T22:46:20.179Z,6.23
2022-10-17T22:48:47.984Z,6.20
2022-10-17T22:51:15.678Z,5.23
2022-10-17T22:53:44.733Z,5.67
2022-10-17T22:56:14.418Z,6.47
2022-10-17T22:58:42.239Z,6.53
2022-10-17T23:01:14.122Z,6.47
2022-10-17T23:03:41.812Z,5.20
2022-10-17T23:06:09.891Z,6.30
2022-10-17T23:08:38.002Z,4.70
2022-10-17T23:11:07.922Z,5.80
2022-10-17T23:13:37.326Z,4.93
2022-10-17T23:16:05.481Z,4.20
2022-10-17T23:18:33.127Z,4.20
2022-10-17T23:21:00.752Z,4.77
2022-10-17T23:23:28.436Z,4.00
2022-10-17T23:25:56.331Z,3.80
2022-10-17T23:28:25.331Z,4.40
2022-10-17T23:30:52.999Z,4.70
2022-10-17T23:33:20.614Z,4.83
2022-10-17T23:35:48.286Z,4.97
2022-10-17T23:38:15.891Z,4.33
2022-10-17T23:40:43.492Z,5.37
2022-10-17T23:43:11.089Z,4.20
2022-10-17T23:48:12.641Z,4.60
2022-10-17T23:50:40.282Z,4.50
2022-10-17T23:53:07.894Z,5.77
2022-10-17T23:55:35.723Z,6.07
2022-10-17T23:58:03.321Z,5.30
